createdAt,value
2023-02-26T00:01:28.141Z,5.80
2023-02-26T00:03:57.375Z,6.67
2023-02-26T00:06:25.745Z,8.85
2023-02-26T00:08:53.534Z,5.40
2023-02-26T00:11:21.570Z,8.55
2023-02-26T00:13:48.543Z,5.25
2023-02-26T00:16:33.391Z,5.38
2023-02-26T00:19:02.797Z,5.50
2023-02-26T00:21:30.970Z,5.18
2023-02-26T00:23:58.442Z,6.18
2023-02-26T00:26:27.414Z,5.95
2023-02-26T00:28:55.152Z,6.05
2023-02-26T00:31:25.206Z,5.00
2023-02-26T00:33:55.752Z,4.47
2023-02-26T00:36:35.775Z,10.93
2023-02-26T00:39:09.934Z,8.85
2023-02-26T00:41:36.984Z,5.22
2023-02-26T00:44:03.862Z,6.57
2023-02-26T00:46:51.653Z,5.18
2023-02-26T00:49:39.402Z,7.45
2023-02-26T00:52:14.307Z,7.30
2023-02-26T00:54:40.905Z,5.38
2023-02-26T00:57:07.590Z,7.43
2023-02-26T00:59:34.244Z,6.68
2023-02-26T01:02:00.935Z,5.68
2023-02-26T01:04:28.025Z,6.22
2023-02-26T01:06:56.892Z,5.63
2023-02-26T01:09:28.021Z,6.10
2023-02-26T01:11:56.793Z,6.00
2023-02-26T01:14:24.892Z,6.45
2023-02-26T01:17:12.444Z,5.97
2023-02-26T01:19:51.352Z,3.00
2023-02-26T01:22:23.638Z,7.28
2023-02-26T01:25:01.643Z,5.10
2023-02-26T01:27:28.459Z,5.95
2023-02-26T01:29:55.840Z,6.55
2023-02-26T01:32:27.251Z,6.88
2023-02-26T01:35:07.303Z,5.32
2023-02-26T01:37:42.994Z,4.97
2023-02-26T01:40:29.875Z,5.57
2023-02-26T01:43:03.793Z,4.90
2023-02-26T01:45:35.365Z,4.15
2023-02-26T01:48:18.596Z,3.80
2023-02-26T01:50:45.394Z,5.53
2023-02-26T01:53:20.351Z,4.65
2023-02-26T01:55:57.611Z,2.33
2023-02-26T01:58:27.972Z,4.75
2023-02-26T02:00:54.649Z,5.65
2023-02-26T02:03:24.420Z,3.35
2023-02-26T02:05:56.864Z,5.18
2023-02-26T02:08:23.658Z,3.58
2023-02-26T02:10:52.344Z,4.03
2023-02-26T02:13:37.905Z,3.97
2023-02-26T02:16:19.432Z,3.10
2023-02-26T02:19:04.756Z,4.82
2023-02-26T02:22:11.666Z,7.45
2023-02-26T02:25:21.289Z,5.88
2023-02-26T02:28:04.007Z,4.65
2023-02-26T02:30:42.843Z,5.65
2023-02-26T02:33:23.680Z,3.75
2023-02-26T02:35:56.260Z,11.07
2023-02-26T02:38:30.908Z,4.78
2023-02-26T02:41:11.401Z,5.75
2023-02-26T02:43:41.815Z,4.90
2023-02-26T02:46:13.089Z,4.55
2023-02-26T02:48:54.289Z,5.32
2023-02-26T02:51:30.685Z,5.72
2023-02-26T02:54:02.962Z,5.60
2023-02-26T02:56:35.626Z,5.43
2023-02-26T02:59:19.597Z,4.88
2023-02-26T03:01:51.329Z,4.45
2023-02-26T03:04:18.564Z,6.00
2023-02-26T03:06:46.870Z,5.20
2023-02-26T03:09:13.696Z,3.20
2023-02-26T03:11:40.447Z,5.50
2023-02-26T03:14:10.343Z,6.43
2023-02-26T03:16:42.840Z,7.45
2023-02-26T03:19:38.631Z,4.78
2023-02-26T03:22:20.686Z,6.45
2023-02-26T03:25:09.492Z,4.30
2023-02-26T03:27:44.940Z,5.53
2023-02-26T03:30:26.837Z,11.07
2023-02-26T03:33:05.900Z,6.57
2023-02-26T03:35:51.181Z,5.00
2023-02-26T03:38:37.258Z,5.15
2023-02-26T03:41:09.069Z,3.83
2023-02-26T03:43:46.289Z,4.72
2023-02-26T03:46:18.312Z,7.85
2023-02-26T03:48:49.216Z,6.18
2023-02-26T03:51:16.445Z,7.20
2023-02-26T03:53:50.837Z,6.30
2023-02-26T03:56:29.780Z,3.40
2023-02-26T03:58:57.131Z,6.15
2023-02-26T04:01:30.621Z,5.20
2023-02-26T04:04:02.989Z,10.75
2023-02-26T04:06:30.924Z,5.05
2023-02-26T04:08:57.834Z,8.32
2023-02-26T04:11:25.893Z,5.97
2023-02-26T04:13:52.624Z,4.38
2023-02-26T04:16:20.673Z,6.60
2023-02-26T04:18:47.254Z,6.70
2023-02-26T04:21:15.961Z,7.18
2023-02-26T04:23:42.785Z,4.57
2023-02-26T04:26:09.428Z,5.55
2023-02-26T04:28:37.993Z,5.90
2023-02-26T04:31:08.192Z,5.43
2023-02-26T04:33:35.155Z,7.07
2023-02-26T04:36:02.205Z,7.38
2023-02-26T04:38:29.342Z,4.70
2023-02-26T04:40:56.019Z,7.80
2023-02-26T04:43:22.800Z,7.00
2023-02-26T04:45:49.879Z,7.32
2023-02-26T04:48:17.352Z,5.18
2023-02-26T04:50:44.681Z,6.72
2023-02-26T04:53:11.239Z,5.47
2023-02-26T04:55:37.985Z,7.55
2023-02-26T04:58:04.859Z,6.32
2023-02-26T05:00:31.378Z,4.45
2023-02-26T05:02:58.104Z,4.82
2023-02-26T05:05:24.982Z,6.95
2023-02-26T05:07:53.927Z,6.55
2023-02-26T05:10:20.570Z,3.97
2023-02-26T05:12:47.138Z,5.30
2023-02-26T05:15:13.822Z,6.35
2023-02-26T05:17:40.361Z,4.13
2023-02-26T05:20:10.247Z,5.35
2023-02-26T05:22:38.389Z,7.22
2023-02-26T05:25:07.743Z,5.32
2023-02-26T05:27:34.860Z,4.95
2023-02-26T05:30:01.654Z,3.47
2023-02-26T05:32:29.050Z,4.97
2023-02-26T05:34:55.651Z,5.85
2023-02-26T05:37:22.332Z,3.28
2023-02-26T05:39:48.981Z,5.55
2023-02-26T05:42:16.168Z,6.55
2023-02-26T05:44:42.909Z,6.38
2023-02-26T05:47:09.612Z,7.55
2023-02-26T05:49:36.210Z,3.45
2023-02-26T05:52:03.094Z,2.90
2023-02-26T05:54:29.969Z,4.80
2023-02-26T05:56:57.013Z,2.28
2023-02-26T05:59:23.779Z,7.25
2023-02-26T06:01:50.864Z,5.70
2023-02-26T06:04:17.838Z,4.43
2023-02-26T06:06:44.388Z,4.78
2023-02-26T06:09:11.116Z,2.97
2023-02-26T06:11:39.813Z,5.90
2023-02-26T06:14:06.749Z,9.65
2023-02-26T06:16:36.106Z,5.18
2023-02-26T06:19:02.978Z,4.10
2023-02-26T06:21:29.973Z,5.38
2023-02-26T06:23:56.691Z,5.38
2023-02-26T06:26:24.046Z,4.30
2023-02-26T06:28:50.932Z,4.00
2023-02-26T06:31:17.768Z,5.43
2023-02-26T06:33:44.639Z,5.93
2023-02-26T06:36:11.310Z,5.03
2023-02-26T06:38:38.119Z,3.45
2023-02-26T06:41:04.841Z,4.20
2023-02-26T06:43:31.804Z,4.75
2023-02-26T06:45:59.911Z,4.75
2023-02-26T06:48:27.540Z,5.28
2023-02-26T06:50:54.362Z,5.07
2023-02-26T06:53:21.225Z,5.10
2023-02-26T06:55:51.422Z,5.82
2023-02-26T06:58:18.920Z,2.55
2023-02-26T07:00:48.887Z,4.45
2023-02-26T07:03:18.050Z,3.72
2023-02-26T07:05:46.308Z,3.03
2023-02-26T07:08:13.773Z,4.05
2023-02-26T07:10:41.555Z,3.38
2023-02-26T07:13:08.704Z,5.40
2023-02-26T07:15:35.739Z,4.32
2023-02-26T07:18:02.406Z,6.82
2023-02-26T07:20:31.174Z,4.70
2023-02-26T07:22:57.900Z,4.13
2023-02-26T07:25:25.420Z,6.47
2023-02-26T07:27:52.502Z,4.65
2023-02-26T07:30:19.206Z,4.60
2023-02-26T07:32:45.718Z,3.40
2023-02-26T07:35:12.644Z,4.15
2023-02-26T07:37:39.192Z,4.20
2023-02-26T07:40:06.430Z,5.20
2023-02-26T07:42:33.284Z,4.68
2023-02-26T07:45:00.069Z,4.93
2023-02-26T07:47:30.649Z,5.38
2023-02-26T07:49:57.777Z,5.95
2023-02-26T07:52:24.412Z,4.20
2023-02-26T07:54:51.038Z,4.75
2023-02-26T07:57:18.179Z,3.63
2023-02-26T07:59:44.909Z,5.10
2023-02-26T08:02:13.711Z,6.72
2023-02-26T08:04:40.457Z,4.60
2023-02-26T08:07:07.622Z,5.93
2023-02-26T08:09:34.258Z,2.35
2023-02-26T08:12:01.127Z,4.50
2023-02-26T08:14:27.738Z,3.40
2023-02-26T08:16:54.534Z,5.38
2023-02-26T08:19:21.520Z,4.70
2023-02-26T08:21:50.029Z,5.07
2023-02-26T08:24:17.521Z,4.10
2023-02-26T08:26:46.271Z,3.30
2023-02-26T08:29:12.922Z,3.42
2023-02-26T08:31:39.610Z,3.55
2023-02-26T08:34:06.420Z,4.25
2023-02-26T08:36:33.215Z,3.80
2023-02-26T08:38:59.958Z,5.50
2023-02-26T08:41:29.956Z,6.70
2023-02-26T08:43:56.708Z,1.58
2023-02-26T08:46:26.761Z,4.30
2023-02-26T08:48:53.675Z,4.38
2023-02-26T08:51:22.134Z,3.55
2023-02-26T08:53:50.522Z,4.13
2023-02-26T08:56:17.843Z,2.60
2023-02-26T08:58:44.483Z,2.28
2023-02-26T09:01:11.149Z,3.80
2023-02-26T09:03:37.937Z,4.43
2023-02-26T09:06:07.316Z,5.72
2023-02-26T09:08:36.896Z,2.42
2023-02-26T09:11:04.168Z,5.88
2023-02-26T09:13:31.175Z,4.03
2023-02-26T09:15:57.926Z,3.45
2023-02-26T09:18:24.784Z,3.97
2023-02-26T09:20:51.511Z,6.47
2023-02-26T09:23:18.340Z,6.35
2023-02-26T09:25:45.222Z,2.35
2023-02-26T09:28:12.114Z,3.25
2023-02-26T09:30:38.956Z,2.95
2023-02-26T09:33:05.732Z,3.70
2023-02-26T09:35:32.458Z,2.38
2023-02-26T09:37:59.129Z,2.30
2023-02-26T09:40:36.761Z,2.30
2023-02-26T09:43:11.258Z,5.30
2023-02-26T09:45:44.389Z,1.85
2023-02-26T09:48:15.330Z,1.75
2023-02-26T09:53:28.219Z,3.90
2023-02-26T09:56:01.671Z,2.00
2023-02-26T09:58:38.831Z,4.63
2023-02-26T10:01:33.830Z,2.67
2023-02-26T10:04:06.254Z,2.90
2023-02-26T10:06:39.916Z,3.60
2023-02-26T10:09:06.500Z,2.92
2023-02-26T10:11:58.240Z,2.55
2023-02-26T10:14:32.061Z,4.05
2023-02-26T10:17:03.438Z,1.75
2023-02-26T10:19:40.143Z,2.95
2023-02-26T10:22:21.918Z,5.25
2023-02-26T10:24:58.409Z,2.58
2023-02-26T10:27:43.312Z,2.22
2023-02-26T10:30:31.856Z,3.28
2023-02-26T10:33:20.860Z,1.95
2023-02-26T10:36:25.348Z,1.90
2023-02-26T10:39:01.221Z,2.33
2023-02-26T10:41:31.825Z,1.85
2023-02-26T10:44:13.427Z,3.30
2023-02-26T10:47:02.910Z,3.25
2023-02-26T10:49:42.892Z,2.55
2023-02-26T10:52:14.940Z,2.55
2023-02-26T10:54:53.479Z,2.03
2023-02-26T10:57:34.729Z,1.45
2023-02-26T11:00:04.472Z,1.90
2023-02-26T11:02:43.506Z,1.67
2023-02-26T11:05:28.172Z,1.63
2023-02-26T11:07:59.605Z,1.75
2023-02-26T11:10:37.379Z,1.52
2023-02-26T11:13:04.545Z,1.75
2023-02-26T11:15:32.445Z,1.38
2023-02-26T11:18:01.333Z,1.73
2023-02-26T11:20:41.269Z,1.60
2023-02-26T11:23:13.601Z,3.75
2023-02-26T11:25:41.072Z,1.73
2023-02-26T11:28:20.569Z,4.03
2023-02-26T11:30:49.296Z,1.42
2023-02-26T11:33:27.483Z,3.03
2023-02-26T11:36:01.480Z,1.85
2023-02-26T11:38:29.545Z,1.60
2023-02-26T11:40:58.708Z,2.05
2023-02-26T11:43:33.452Z,2.53
2023-02-26T11:46:01.749Z,3.00
2023-02-26T11:48:45.302Z,4.90
2023-02-26T11:51:16.650Z,1.63
2023-02-26T11:54:04.045Z,2.38
2023-02-26T11:56:35.906Z,1.75
2023-02-26T11:59:08.997Z,1.63
2023-02-26T12:01:37.034Z,4.30
2023-02-26T12:04:06.339Z,2.67
2023-02-26T12:06:33.171Z,1.45
2023-02-26T12:09:00.230Z,2.17
2023-02-26T12:11:34.747Z,0.82
2023-02-26T12:14:39.593Z,1.60
2023-02-26T12:17:33.663Z,1.50
2023-02-26T12:20:19.458Z,2.75
2023-02-26T12:23:07.051Z,1.00
2023-02-26T12:25:58.693Z,3.53
2023-02-26T12:28:35.080Z,2.05
2023-02-26T12:31:15.860Z,2.28
2023-02-26T12:33:50.774Z,2.22
2023-02-26T12:36:36.309Z,1.17
2023-02-26T12:39:41.088Z,1.90
2023-02-26T12:42:51.567Z,2.78
2023-02-26T12:45:44.709Z,0.68
2023-02-26T12:48:31.474Z,1.98
2023-02-26T12:51:26.063Z,2.00
2023-02-26T12:54:08.138Z,1.25
2023-02-26T12:56:40.510Z,1.58
2023-02-26T12:59:38.264Z,0.65
2023-02-26T13:02:32.655Z,1.58
2023-02-26T13:05:24.511Z,0.93
2023-02-26T13:07:58.419Z,0.52
2023-02-26T13:10:33.652Z,1.83
2023-02-26T13:13:10.387Z,1.35
2023-02-26T13:15:59.587Z,1.33
2023-02-26T13:18:43.806Z,0.68
2023-02-26T13:21:19.887Z,1.23
2023-02-26T13:24:05.699Z,0.88
2023-02-26T13:26:35.798Z,3.03
2023-02-26T13:29:10.552Z,1.23
2023-02-26T13:31:58.891Z,1.90
2023-02-26T13:34:54.983Z,4.22
2023-02-26T13:37:34.480Z,1.88
2023-02-26T13:40:25.204Z,1.42
2023-02-26T13:43:03.538Z,1.25
2023-02-26T13:45:49.010Z,1.10
2023-02-26T13:48:18.506Z,0.43
2023-02-26T13:51:01.329Z,3.35
2023-02-26T13:53:41.187Z,1.23
2023-02-26T13:56:50.121Z,1.13
2023-02-26T13:59:20.211Z,1.60
2023-02-26T14:01:47.460Z,1.45
2023-02-26T14:04:20.236Z,1.67
2023-02-26T14:06:49.310Z,0.50
2023-02-26T14:09:21.909Z,0.60
2023-02-26T14:12:00.502Z,1.83
2023-02-26T14:14:35.267Z,0.80
2023-02-26T14:17:08.068Z,2.25
2023-02-26T14:19:52.950Z,2.00
2023-02-26T14:22:26.461Z,1.38
2023-02-26T14:25:32.163Z,1.38
2023-02-26T14:28:26.860Z,1.70
2023-02-26T14:31:05.968Z,3.08
2023-02-26T14:33:40.930Z,1.35
2023-02-26T14:36:17.246Z,0.65
2023-02-26T14:38:45.571Z,2.22
2023-02-26T14:41:24.765Z,1.50
2023-02-26T14:44:03.402Z,1.23
2023-02-26T14:46:30.677Z,3.22
2023-02-26T14:48:57.991Z,2.05
2023-02-26T14:52:00.396Z,2.50
2023-02-26T14:54:56.196Z,0.75
2023-02-26T14:57:48.208Z,3.20
2023-02-26T15:00:22.726Z,1.58
2023-02-26T15:03:01.225Z,2.58
2023-02-26T15:06:06.027Z,3.00
2023-02-26T15:08:47.557Z,2.53
2023-02-26T15:11:39.352Z,1.05
2023-02-26T15:14:20.059Z,2.60
2023-02-26T15:19:57.869Z,0.65
2023-02-26T15:22:49.043Z,2.30
2023-02-26T15:25:30.472Z,1.70
2023-02-26T15:27:58.005Z,2.10
2023-02-26T15:30:26.102Z,2.03
2023-02-26T15:32:58.265Z,1.40
2023-02-26T15:35:28.717Z,1.08
2023-02-26T15:37:58.145Z,1.95
2023-02-26T15:40:25.958Z,2.45
2023-02-26T15:42:55.545Z,1.33
2023-02-26T15:45:32.754Z,1.05
2023-02-26T15:48:04.674Z,3.97
2023-02-26T15:50:35.168Z,2.15
2023-02-26T15:53:04.593Z,1.90
2023-02-26T15:55:44.656Z,1.25
2023-02-26T15:58:20.793Z,1.58
2023-02-26T16:00:53.092Z,1.70
2023-02-26T16:03:26.396Z,2.50
2023-02-26T16:05:55.621Z,1.65
2023-02-26T16:08:22.456Z,2.38
2023-02-26T16:10:49.659Z,1.42
2023-02-26T16:13:25.328Z,1.83
2023-02-26T16:15:51.970Z,2.33
2023-02-26T16:18:23.921Z,1.17
2023-02-26T16:20:55.874Z,2.35
2023-02-26T16:23:26.148Z,1.10
2023-02-26T16:26:00.119Z,1.63
2023-02-26T16:28:33.044Z,2.60
2023-02-26T16:31:02.878Z,1.52
2023-02-26T16:33:33.662Z,1.75
2023-02-26T16:38:43.411Z,2.22
2023-02-26T16:41:11.657Z,1.25
2023-02-26T16:43:47.858Z,2.75
2023-02-26T16:46:20.304Z,5.50
2023-02-26T16:49:01.352Z,1.45
2023-02-26T16:51:31.399Z,2.00
2023-02-26T16:54:04.989Z,1.77
2023-02-26T16:56:34.674Z,2.10
2023-02-26T16:59:16.991Z,2.47
2023-02-26T17:01:58.920Z,2.80
2023-02-26T17:04:32.253Z,2.33
2023-02-26T17:06:59.389Z,2.10
2023-02-26T17:09:41.121Z,1.42
2023-02-26T17:12:22.540Z,1.85
2023-02-26T17:15:00.849Z,3.92
2023-02-26T17:17:28.302Z,2.25
2023-02-26T17:19:54.935Z,1.60
2023-02-26T17:22:26.710Z,1.85
2023-02-26T17:24:53.806Z,1.63
2023-02-26T17:27:33.902Z,2.20
2023-02-26T17:30:02.223Z,2.33
2023-02-26T17:32:31.634Z,1.60
2023-02-26T17:34:59.296Z,1.35
2023-02-26T17:37:33.756Z,2.67
2023-02-26T17:40:00.738Z,2.35
2023-02-26T17:42:27.395Z,1.40
2023-02-26T17:44:55.529Z,1.55
2023-02-26T17:47:25.084Z,3.65
2023-02-26T17:49:52.607Z,3.25
2023-02-26T17:52:19.687Z,4.78
2023-02-26T17:54:46.340Z,3.50
2023-02-26T17:57:18.788Z,2.65
2023-02-26T17:59:46.332Z,3.00
2023-02-26T18:02:27.273Z,3.05
2023-02-26T18:04:54.313Z,3.42
2023-02-26T18:07:23.229Z,1.40
2023-02-26T18:09:49.962Z,1.70
2023-02-26T18:12:19.157Z,1.88
2023-02-26T18:14:46.727Z,2.30
2023-02-26T18:17:22.388Z,2.50
2023-02-26T18:19:51.876Z,2.55
2023-02-26T18:22:21.647Z,2.40
2023-02-26T18:24:48.171Z,3.07
2023-02-26T18:27:25.735Z,2.72
2023-02-26T18:29:53.811Z,3.45
2023-02-26T18:32:25.409Z,2.35
2023-02-26T18:34:52.295Z,2.15
2023-02-26T18:37:22.361Z,2.05
2023-02-26T18:39:49.437Z,2.08
2023-02-26T18:42:23.819Z,1.77
2023-02-26T18:44:51.228Z,2.72
2023-02-26T18:47:19.094Z,3.90
2023-02-26T18:49:47.339Z,5.90
2023-02-26T18:52:14.230Z,2.58
2023-02-26T18:54:41.433Z,1.60
2023-02-26T18:57:09.253Z,2.28
2023-02-26T18:59:36.089Z,3.65
2023-02-26T19:02:04.341Z,2.85
2023-02-26T19:04:30.969Z,6.53
2023-02-26T19:06:58.224Z,4.10
2023-02-26T19:09:25.183Z,2.63
2023-02-26T19:11:51.843Z,1.70
2023-02-26T19:14:19.045Z,3.50
2023-02-26T19:16:45.635Z,2.63
2023-02-26T19:19:13.143Z,3.17
2023-02-26T19:21:41.105Z,3.67
2023-02-26T19:24:11.175Z,4.30
2023-02-26T19:26:38.103Z,2.60
2023-02-26T19:29:07.300Z,2.50
2023-02-26T19:31:35.278Z,3.58
2023-02-26T19:34:03.048Z,6.82
2023-02-26T19:36:33.673Z,3.10
2023-02-26T19:41:32.826Z,2.80
2023-02-26T19:43:59.635Z,2.95
2023-02-26T19:46:26.341Z,2.45
2023-02-26T19:48:52.992Z,3.97
2023-02-26T19:51:19.650Z,6.18
2023-02-26T19:53:46.394Z,1.85
2023-02-26T19:56:13.763Z,2.35
2023-02-26T19:58:40.632Z,3.17
2023-02-26T20:01:07.306Z,2.90
2023-02-26T20:03:34.179Z,3.28
2023-02-26T20:06:01.017Z,1.92
2023-02-26T20:08:29.701Z,4.75
2023-02-26T20:10:58.174Z,2.88
2023-02-26T20:13:29.832Z,3.67
2023-02-26T20:16:00.355Z,2.60
2023-02-26T20:18:28.844Z,4.15
2023-02-26T20:20:55.791Z,2.28
2023-02-26T20:23:22.459Z,4.68
2023-02-26T20:25:50.537Z,3.83
2023-02-26T20:28:18.426Z,5.50
2023-02-26T20:30:46.606Z,3.67
2023-02-26T20:33:14.272Z,2.63
2023-02-26T20:35:46.434Z,4.30
2023-02-26T20:38:14.806Z,5.35
2023-02-26T20:40:41.709Z,4.72
2023-02-26T20:43:08.583Z,3.67
2023-02-26T20:45:41.302Z,3.80
2023-02-26T20:48:08.854Z,4.22
2023-02-26T20:50:36.529Z,4.10
2023-02-26T20:53:04.818Z,3.67
2023-02-26T20:55:31.549Z,4.70
2023-02-26T20:57:58.197Z,5.63
2023-02-26T21:00:24.910Z,3.28
2023-02-26T21:02:51.717Z,3.20
2023-02-26T21:05:25.471Z,4.03
2023-02-26T21:08:01.917Z,4.72
2023-02-26T21:13:09.994Z,5.55
2023-02-26T21:15:41.579Z,4.60
2023-02-26T21:18:12.732Z,3.20
2023-02-26T21:20:41.388Z,4.95
2023-02-26T21:23:08.193Z,3.92
2023-02-26T21:25:35.138Z,4.20
2023-02-26T21:28:11.661Z,5.97
2023-02-26T21:30:38.276Z,4.40
2023-02-26T21:33:07.677Z,2.67
2023-02-26T21:35:36.237Z,5.30
2023-02-26T21:38:02.859Z,2.83
2023-02-26T21:40:31.937Z,5.53
2023-02-26T21:43:00.957Z,5.95
2023-02-26T21:45:27.576Z,5.78
2023-02-26T21:47:54.122Z,4.68
2023-02-26T21:50:20.690Z,5.30
2023-02-26T21:52:47.500Z,4.60
2023-02-26T21:55:14.396Z,5.03
2023-02-26T21:57:41.020Z,4.68
2023-02-26T22:00:10.528Z,3.00
2023-02-26T22:02:37.422Z,2.97
2023-02-26T22:05:05.165Z,5.03
2023-02-26T22:07:31.809Z,3.95
2023-02-26T22:09:58.369Z,3.85
2023-02-26T22:12:26.128Z,3.25
2023-02-26T22:14:52.780Z,4.95
2023-02-26T22:17:19.374Z,2.92
2023-02-26T22:19:46.013Z,3.85
2023-02-26T22:22:12.837Z,3.80
2023-02-26T22:24:41.132Z,3.65
2023-02-26T22:27:07.771Z,4.75
2023-02-26T22:29:34.614Z,3.58
2023-02-26T22:32:01.274Z,2.75
2023-02-26T22:34:28.266Z,4.97
2023-02-26T22:36:55.048Z,3.97
2023-02-26T22:39:24.633Z,3.70
2023-02-26T22:41:51.288Z,3.83
2023-02-26T22:44:18.061Z,4.43
2023-02-26T22:46:44.662Z,3.03
2023-02-26T22:49:11.286Z,3.83
2023-02-26T22:51:37.922Z,6.25
2023-02-26T22:54:04.663Z,3.42
2023-02-26T22:56:33.674Z,2.95
2023-02-26T22:59:00.414Z,4.38
2023-02-26T23:01:27.773Z,2.78
2023-02-26T23:03:54.485Z,2.03
2023-02-26T23:06:21.477Z,2.58
2023-02-26T23:08:50.943Z,5.60
2023-02-26T23:11:17.880Z,2.85
2023-02-26T23:13:47.419Z,5.13
2023-02-26T23:16:14.560Z,3.33
2023-02-26T23:18:43.247Z,2.63
2023-02-26T23:21:17.233Z,8.25
2023-02-26T23:23:44.247Z,2.45
2023-02-26T23:26:11.626Z,2.85
2023-02-26T23:28:38.708Z,2.80
2023-02-26T23:31:05.768Z,2.75
2023-02-26T23:33:32.643Z,1.92
2023-02-26T23:35:59.328Z,3.70
2023-02-26T23:38:26.185Z,4.07
2023-02-26T23:40:52.815Z,5.90
2023-02-26T23:43:19.371Z,3.97
2023-02-26T23:45:46.023Z,4.00
2023-02-26T23:48:12.719Z,2.38
2023-02-26T23:50:39.358Z,2.83
2023-02-26T23:53:06.206Z,2.30
2023-02-26T23:55:32.871Z,3.40
2023-02-26T23:57:59.521Z,5.22
